Aérodrome :
LOGIN :

S'inscrire | Disclaimer

   EN    FR    IT 

 










Légende :    VFR   VFR Marginal   IFR   IFR Intensif   IFR Très Intensif
Visi : 
Plafond : 
>= 8 km
>= 3000ft
5 à 8 km
1000 à 3000 ft
1500m à 5 km
500 à 1000 ft
800 à 1500m
200 à 500 ft
< 800m
< 200 ft
Symboles :   Orages  Brouillard  Fortes neiges  Fortes précipitations  Vent > 20 kt
SIGMETs :   Divers  Orages  Givrage  Turbulence  Onde Orograph.  Cendres Volcan.







- Altitude de l'aérodrome : 13 ft
- Code IATA : LYX
- Voir les cartes d'approche


EGMD - Lydd

DERNIER METAR :
  • 180620Z AUTO 35009KT 9999 NCD 09/08 Q1029

METARs EXPIRÉS :
  • 180550Z AUTO 35010KT 9999 NCD 08/07 Q1028
  • 180520Z AUTO 35008KT 9999 NCD 07/07 Q1028
  • 180450Z AUTO 33008KT 9999 FEW002/// 07/06 Q1028
  • 180420Z AUTO 33008KT 9999 NCD 07/06 Q1027
  • 180350Z AUTO 34007KT 9999 SCT037/// 07/06 Q1028

TAF TAF EGMD
Valide du 18 à 06h jusqu'au 18 à 15h UTC


180504Z 1806/1815 33010KT 9999 FEW040
BECMG 1806/1809 03008KT
ATIS : +44 1797 322 422
Pas de NOTAMs connus pour ce terrain.



MET'MAP, la Météo Aéronautique d'un coup d'oeil ! - Copyright ORBIFLY Décembre 2007 - Disclaimer

ORBIFLY MET'MAP TEAM :

Programmation & Développement : Alexandra Zaïnal
Conception & Développement : Baudouin d'Aumeries
Co-Programmation & Développement : Marc-Olivier Méhu
Soutien technique & logistique : Manuel Goepfert

Contact : metmap@orbifly.com




SOURCES & CREDITS :

   NOAA